Time;durP1;ratioP1;P1;durP2;ratioP2;P2;SDS_P1;SDS_P2;PMS_P1;PMS_P2;Temp;Humidity;BMP_temperature;BMP_pressure;BME280_temperature;BME280_humidity;BME280_pressure;Samples;Min_cycle;Max_cycle;Signal;HPM_P1;HPM_P2
2021/08/14 00:01:48;;;;;;;20.10;5.15;;;;;;;18.21;71.86;102154.47;5102409;27;20360;-62
2021/08/14 00:04:15;;;;;;;11.32;3.88;;;;;;;17.57;75.61;102146.97;5103159;27;20047;-62
2021/08/14 00:06:42;;;;;;;19.95;5.13;;;;;;;17.35;76.48;102145.72;5098911;27;20074;-62
2021/08/14 00:09:08;;;;;;;13.27;4.07;;;;;;;18.31;72.77;102157.78;5110977;27;20134;-62
2021/08/14 00:11:35;;;;;;;16.52;4.20;;;;;;;17.71;74.93;102158.78;5093487;27;20132;-62
2021/08/14 00:14:02;;;;;;;18.73;4.75;;;;;;;17.51;76.08;102155.56;5106541;27;20091;-62
2021/08/14 00:16:28;;;;;;;16.92;4.80;;;;;;;18.60;70.75;102152.97;5094432;27;20075;-61
2021/08/14 00:18:55;;;;;;;16.33;4.28;;;;;;;17.72;73.64;102149.84;5110017;27;20052;-61
2021/08/14 00:21:21;;;;;;;15.55;4.85;;;;;;;17.44;75.42;102143.09;5079522;28;20047;-62
2021/08/14 00:23:48;;;;;;;15.20;5.10;;;;;;;17.27;75.95;102155.44;5107691;27;20150;-62
2021/08/14 00:26:14;;;;;;;13.27;4.10;;;;;;;17.15;77.09;102157.53;5104725;27;20083;-62
2021/08/14 00:28:41;;;;;;;15.48;4.60;;;;;;;17.04;78.25;102155.19;5100909;27;20143;-61
2021/08/14 00:31:07;;;;;;;19.58;5.13;;;;;;;17.01;79.33;102148.34;5100537;27;20087;-61
2021/08/14 00:33:34;;;;;;;12.20;4.40;;;;;;;17.02;79.13;102142.06;5083795;27;20089;-62
2021/08/14 00:36:00;;;;;;;14.40;5.00;;;;;;;17.37;76.68;102137.63;5100534;27;20080;-60
2021/08/14 00:38:29;;;;;;;;;;;;;;;17.56;75.51;102137.38;5101104;27;20051;-62
2021/08/14 00:40:55;;;;;;;14.43;4.40;;;;;;;18.03;74.05;102133.34;5101820;27;19966;-62
2021/08/14 00:43:22;;;;;;;16.67;5.45;;;;;;;17.88;75.05;102127.88;5107757;27;20078;-62
2021/08/14 00:45:49;;;;;;;17.38;4.97;;;;;;;17.42;76.75;102126.53;5085666;28;20211;-61
2021/08/14 00:48:32;;;;;;;12.73;4.95;;;;;;;18.45;72.31;102137.72;5103757;27;20063;-61
2021/08/14 00:50:59;;;;;;;19.67;5.63;;;;;;;18.81;70.44;102131.22;5093839;28;20185;-62
2021/08/14 00:53:25;;;;;;;13.60;5.28;;;;;;;19.00;69.29;102130.84;5104067;27;20067;-62
2021/08/14 00:55:54;;;;;;;19.20;5.25;;;;;;;19.14;68.73;102134.63;5097917;27;20051;-62
2021/08/14 00:58:21;;;;;;;;;;;;;;;17.89;73.05;102144.59;5103592;27;20051;-60
2021/08/14 01:00:47;;;;;;;15.50;5.03;;;;;;;17.48;76.35;102147.94;5093876;27;20003;-62
2021/08/14 01:03:14;;;;;;;15.18;5.32;;;;;;;17.84;75.44;102144.25;5106678;27;20487;-61
2021/08/14 01:05:47;;;;;;;13.05;5.25;;;;;;;18.60;72.23;102147.66;5100062;28;20585;-62
2021/08/14 01:08:14;;;;;;;25.77;5.30;;;;;;;18.90;70.58;102146.16;5099919;27;20105;-62
2021/08/14 01:10:42;;;;;;;18.48;5.38;;;;;;;19.10;69.08;102136.78;5100744;27;20505;-61
2021/08/14 01:13:09;;;;;;;16.58;5.13;;;;;;;19.24;68.76;102145.06;5093306;27;20086;-61
2021/08/14 01:15:40;;;;;;;13.48;4.88;;;;;;;19.29;67.89;102148.88;5104201;27;20047;-62
2021/08/14 01:18:10;;;;;;;18.85;5.18;;;;;;;19.28;67.73;102143.72;5100222;27;20110;-62
2021/08/14 01:20:37;;;;;;;15.30;4.93;;;;;;;18.38;71.55;102152.63;5105435;27;20078;-61
2021/08/14 01:23:04;;;;;;;16.90;6.10;;;;;;;17.68;74.81;102143.22;5106194;27;20055;-61
2021/08/14 01:25:30;;;;;;;17.20;5.18;;;;;;;17.32;76.76;102135.44;5099255;27;20122;-61
2021/08/14 01:27:57;;;;;;;13.75;4.90;;;;;;;17.12;77.64;102139.31;5098812;27;20138;-60
2021/08/14 01:30:23;;;;;;;14.27;5.03;;;;;;;16.93;79.74;102133.22;5096031;27;20054;-62
2021/08/14 01:32:50;;;;;;;17.83;5.68;;;;;;;16.82;80.45;102137.97;5105987;27;20134;-62
2021/08/14 01:35:17;;;;;;;17.00;5.05;;;;;;;17.47;78.35;102125.06;5097653;27;20048;-61
2021/08/14 01:37:43;;;;;;;18.50;6.75;;;;;;;16.93;80.16;102117.31;5102532;27;20116;-62
2021/08/14 01:40:10;;;;;;;17.35;5.90;;;;;;;17.14;78.28;102116.94;5106777;27;20087;-61
2021/08/14 01:42:36;;;;;;;21.35;5.88;;;;;;;17.11;80.78;102119.94;5091107;27;20070;-61
2021/08/14 01:45:04;;;;;;;21.30;6.40;;;;;;;16.94;80.39;102121.66;5106882;27;20051;-60
2021/08/14 01:47:31;;;;;;;14.63;5.10;;;;;;;17.49;77.31;102114.28;5093024;27;20094;-61
2021/08/14 01:49:57;;;;;;;18.10;5.95;;;;;;;17.93;75.30;102112.25;5105951;27;20135;-61
2021/08/14 01:52:24;;;;;;;19.70;6.18;;;;;;;17.51;76.79;102125.56;5073502;28;20798;-62
2021/08/14 01:54:51;;;;;;;15.30;5.68;;;;;;;17.10;78.89;102120.91;5085994;27;20079;-61
2021/08/14 01:57:17;;;;;;;25.20;7.05;;;;;;;17.69;77.42;102115.66;5094539;27;20153;-62
2021/08/14 01:59:44;;;;;;;11.82;4.88;;;;;;;17.42;76.73;102114.09;5102898;27;20137;-62
2021/08/14 02:02:11;;;;;;;13.27;5.75;;;;;;;17.77;76.36;102115.69;5103507;27;20132;-62
2021/08/14 02:04:38;;;;;;;20.08;5.68;;;;;;;17.44;77.04;102113.94;5081568;28;20558;-62
2021/08/14 02:07:05;;;;;;;20.50;7.25;;;;;;;17.92;76.06;102107.97;5099647;27;20406;-60
2021/08/14 02:09:31;;;;;;;14.25;5.47;;;;;;;17.66;75.70;102108.03;5094932;27;20059;-62
2021/08/14 02:11:58;;;;;;;22.10;6.55;;;;;;;17.22;78.33;102102.09;5098700;27;20055;-61
2021/08/14 02:14:24;;;;;;;16.63;6.22;;;;;;;17.30;79.08;102099.47;5108397;27;20096;-61
2021/08/14 02:16:51;;;;;;;19.02;5.63;;;;;;;17.29;78.68;102093.34;5099449;27;20150;-62
2021/08/14 02:19:17;;;;;;;18.95;6.53;;;;;;;17.39;78.40;102099.34;5107880;27;20082;-61
2021/08/14 02:21:44;;;;;;;18.30;6.43;;;;;;;17.14;78.33;102093.09;5091133;27;20078;-62
2021/08/14 02:24:10;;;;;;;15.48;6.20;;;;;;;18.02;75.83;102088.41;5101448;27;20134;-62
2021/08/14 02:26:37;;;;;;;20.00;6.57;;;;;;;18.56;72.29;102086.88;5095850;27;20069;-61
2021/08/14 02:29:03;;;;;;;13.38;6.25;;;;;;;18.80;70.62;102081.69;5109267;27;20134;-61
2021/08/14 02:31:30;;;;;;;19.63;6.20;;;;;;;17.64;75.86;102080.84;5074968;28;20134;-60
2021/08/14 02:33:58;;;;;;;21.38;7.72;;;;;;;17.18;78.14;102083.00;5106617;27;20085;-62
2021/08/14 02:36:24;;;;;;;18.65;7.13;;;;;;;16.96;79.76;102082.56;5094373;28;20075;-62
2021/08/14 02:38:50;;;;;;;21.65;7.03;;;;;;;17.11;79.02;102080.16;5095765;27;20506;-62
2021/08/14 02:41:17;;;;;;;22.23;7.22;;;;;;;16.74;81.00;102091.88;5101641;28;20181;-61
2021/08/14 02:43:44;;;;;;;17.48;6.88;;;;;;;16.69;81.15;102086.19;5100842;27;20046;-60
2021/08/14 02:46:10;;;;;;;19.38;7.07;;;;;;;16.56;82.39;102077.81;5081981;28;20135;-62
2021/08/14 02:48:37;;;;;;;19.42;7.45;;;;;;;16.45;82.37;102076.25;5097346;27;20062;-61
2021/08/14 02:51:03;;;;;;;18.83;6.80;;;;;;;17.64;76.88;102077.34;5095744;27;20130;-61
2021/08/14 02:53:30;;;;;;;19.55;6.78;;;;;;;17.20;77.75;102073.88;5106701;27;20079;-60
2021/08/14 02:55:56;;;;;;;16.08;6.28;;;;;;;16.90;79.31;102071.78;5094645;28;20079;-61
2021/08/14 02:58:23;;;;;;;24.95;7.40;;;;;;;17.99;75.09;102076.25;5105068;27;20147;-62
2021/08/14 03:00:50;;;;;;;16.00;7.35;;;;;;;18.41;72.54;102072.63;5093727;28;20130;-62
2021/08/14 03:03:16;;;;;;;16.52;6.30;;;;;;;17.84;73.74;102078.75;5101518;27;20085;-62
2021/08/14 03:05:43;;;;;;;17.15;7.07;;;;;;;17.05;77.54;102083.44;5088916;28;20090;-62
2021/08/14 03:08:10;;;;;;;16.88;7.00;;;;;;;16.71;79.34;102088.69;5084696;28;20106;-61
2021/08/14 03:10:39;;;;;;;18.35;6.85;;;;;;;17.44;77.27;102085.56;5102759;28;20154;-62
2021/08/14 03:13:05;;;;;;;16.38;6.65;;;;;;;18.07;73.42;102081.59;5102665;28;20091;-62
2021/08/14 03:15:32;;;;;;;20.50;7.43;;;;;;;18.31;72.10;102079.94;5103152;28;20086;-60
2021/08/14 03:17:59;;;;;;;20.00;7.18;;;;;;;18.42;71.50;102078.75;5090939;27;20060;-61
2021/08/14 03:20:26;;;;;;;18.80;6.95;;;;;;;18.52;70.79;102071.44;5080939;28;20445;-61
2021/08/14 03:22:52;;;;;;;20.52;7.60;;;;;;;18.60;70.77;102073.25;5077858;28;20534;-60
2021/08/14 03:25:20;;;;;;;20.30;7.68;;;;;;;18.62;71.09;102065.94;5104227;27;20130;-61
2021/08/14 03:27:46;;;;;;;19.10;7.72;;;;;;;18.66;70.50;102061.94;5097458;28;20548;-62
2021/08/14 03:30:17;;;;;;;19.58;7.28;;;;;;;18.71;69.82;102060.44;5103165;28;20493;-61
2021/08/14 03:32:44;;;;;;;20.95;7.28;;;;;;;18.70;69.47;102053.47;5095495;28;20513;-59
2021/08/14 03:35:14;;;;;;;17.40;7.10;;;;;;;18.65;68.88;102058.47;5099515;28;20055;-61
2021/08/14 03:37:41;;;;;;;19.70;7.47;;;;;;;18.57;69.32;102061.97;5101862;28;20166;-62
2021/08/14 03:40:09;;;;;;;24.00;8.02;;;;;;;18.52;69.98;102068.78;5098173;28;20150;-62
2021/08/14 03:42:36;;;;;;;18.42;7.15;;;;;;;18.46;70.10;102067.63;5102189;28;20079;-62
2021/08/14 03:45:03;;;;;;;21.52;6.65;;;;;;;18.45;70.12;102062.50;5090581;28;20132;-62
2021/08/14 03:47:29;;;;;;;16.17;6.65;;;;;;;18.41;69.64;102059.34;5100123;28;20094;-61
2021/08/14 03:49:56;;;;;;;18.25;6.90;;;;;;;18.38;69.55;102060.50;5107029;28;20047;-60
2021/08/14 03:52:23;;;;;;;19.30;6.85;;;;;;;18.35;69.66;102060.84;5075787;28;20147;-62
2021/08/14 03:54:50;;;;;;;18.13;6.85;;;;;;;18.25;70.06;102069.97;5104599;28;20555;-62
2021/08/14 03:57:17;;;;;;;18.08;7.25;;;;;;;18.06;71.49;102065.84;5090433;28;20146;-62
2021/08/14 03:59:43;;;;;;;21.00;6.95;;;;;;;18.02;72.46;102072.47;5098826;28;20456;-62
2021/08/14 04:02:10;;;;;;;19.17;7.85;;;;;;;17.99;72.87;102073.63;5096013;27;20051;-62
2021/08/14 04:04:36;;;;;;;18.92;7.53;;;;;;;17.92;72.62;102072.63;5104107;27;20070;-61
2021/08/14 04:07:03;;;;;;;21.50;7.60;;;;;;;17.23;76.52;102077.22;5102649;28;20055;-62
2021/08/14 04:09:29;;;;;;;20.25;6.82;;;;;;;16.58;78.90;102076.69;5096766;28;20059;-60
2021/08/14 04:11:56;;;;;;;20.55;7.68;;;;;;;16.47;79.62;102069.00;5097152;28;20142;-62
2021/08/14 04:14:22;;;;;;;22.50;8.15;;;;;;;16.24;81.66;102073.94;5095066;28;20086;-62
2021/08/14 04:16:49;;;;;;;22.33;7.90;;;;;;;16.16;82.71;102079.19;5099538;28;20147;-61
2021/08/14 04:19:16;;;;;;;14.80;7.20;;;;;;;16.96;77.90;102074.63;5098904;28;20100;-62
2021/08/14 04:21:44;;;;;;;19.88;7.80;;;;;;;17.53;74.97;102074.00;5101100;28;20138;-60
2021/08/14 04:24:11;;;;;;;22.52;7.65;;;;;;;16.88;76.93;102081.72;5100513;28;20820;-61
2021/08/14 04:26:37;;;;;;;22.75;7.47;;;;;;;17.01;78.01;102082.09;5080754;28;20071;-62
2021/08/14 04:29:04;;;;;;;17.85;6.65;;;;;;;17.51;74.12;102080.47;5085362;28;20047;-62
2021/08/14 04:31:31;;;;;;;17.58;7.78;;;;;;;16.88;76.77;102084.34;5094545;27;20079;-62
2021/08/14 04:33:57;;;;;;;25.05;8.05;;;;;;;16.68;80.93;102073.94;5107840;27;20042;-61
2021/08/14 04:36:24;;;;;;;28.25;8.55;;;;;;;16.39;82.17;102077.72;5089387;27;20051;-62
2021/08/14 04:38:50;;;;;;;20.75;8.82;;;;;;;16.23;83.06;102068.78;5109553;27;20459;-62
2021/08/14 04:41:16;;;;;;;15.32;7.05;;;;;;;16.12;83.78;102070.69;5100668;27;20130;-62
2021/08/14 04:43:43;;;;;;;23.45;8.90;;;;;;;17.53;77.41;102059.91;5102215;27;20151;-61
2021/08/14 04:46:09;;;;;;;20.35;7.43;;;;;;;18.06;73.59;102064.00;5102331;27;20105;-62
2021/08/14 04:48:36;;;;;;;18.10;8.43;;;;;;;16.98;77.44;102075.28;5101107;27;20170;-62
2021/08/14 04:51:02;;;;;;;20.90;8.25;;;;;;;16.54;80.50;102070.03;5097835;27;20550;-59
2021/08/14 04:53:29;;;;;;;23.73;9.10;;;;;;;16.32;82.62;102070.53;5102376;27;20150;-62
2021/08/14 04:55:55;;;;;;;19.52;9.05;;;;;;;16.80;81.12;102072.69;5103842;27;20040;-62
2021/08/14 04:58:22;;;;;;;41.85;10.15;;;;;;;16.24;85.04;102073.13;5104029;27;20071;-62
2021/08/14 05:00:48;;;;;;;19.45;8.68;;;;;;;17.44;78.82;102066.19;5101266;27;20078;-62
2021/08/14 05:03:17;;;;;;;22.48;9.30;;;;;;;17.91;75.98;102061.16;5099901;27;20040;-62
2021/08/14 05:05:44;;;;;;;;;;;;;;;18.20;74.39;102064.34;5093007;27;20052;-61
2021/08/14 05:08:11;;;;;;;19.92;9.27;;;;;;;18.47;72.74;102061.31;5105845;27;20067;-61
2021/08/14 05:10:37;;;;;;;23.85;9.75;;;;;;;18.44;72.19;102060.81;5097999;27;20116;-62
2021/08/14 05:13:04;;;;;;;28.02;9.45;;;;;;;18.16;73.13;102061.19;5101427;27;20079;-61
2021/08/14 05:15:31;;;;;;;26.05;9.50;;;;;;;18.09;74.29;102058.38;5099534;27;20066;-62
2021/08/14 05:17:57;;;;;;;19.98;8.75;;;;;;;18.33;72.64;102054.88;5099331;27;20138;-62
2021/08/14 05:20:24;;;;;;;19.10;8.65;;;;;;;18.44;72.07;102055.50;5101442;27;20087;-62
2021/08/14 05:22:50;;;;;;;28.70;9.90;;;;;;;17.33;77.45;102060.19;5097923;27;20134;-62
2021/08/14 05:25:17;;;;;;;25.83;9.85;;;;;;;16.64;81.36;102051.41;5104691;27;20105;-62
2021/08/14 05:27:44;;;;;;;26.77;8.65;;;;;;;16.34;83.10;102055.31;5100043;27;20146;-63
2021/08/14 05:30:11;;;;;;;27.80;10.05;;;;;;;16.20;85.63;102057.53;5099841;27;20078;-61
2021/08/14 05:32:38;;;;;;;21.13;8.75;;;;;;;17.06;82.18;102057.78;5093832;27;20541;-62
2021/08/14 05:35:05;;;;;;;27.48;9.88;;;;;;;16.45;83.55;102060.38;5104891;27;20067;-60
2021/08/14 05:37:31;;;;;;;27.05;9.90;;;;;;;17.61;78.50;102048.50;5104913;27;20075;-62
2021/08/14 05:39:57;;;;;;;24.23;9.98;;;;;;;18.01;76.11;102046.91;5097547;27;20166;-62
2021/08/14 05:42:24;;;;;;;27.38;10.57;;;;;;;17.28;78.85;102054.53;5101359;27;20086;-62
2021/08/14 05:44:50;;;;;;;23.58;9.25;;;;;;;16.77;82.59;102058.91;5096332;27;20130;-60
2021/08/14 05:47:17;;;;;;;25.10;9.15;;;;;;;16.58;83.88;102060.81;5096447;27;20143;-61
2021/08/14 05:49:43;;;;;;;22.25;10.18;;;;;;;16.50;85.39;102067.84;5099624;27;20146;-62
2021/08/14 05:52:10;;;;;;;25.65;9.65;;;;;;;17.23;82.91;102058.66;5100292;27;20170;-62
2021/08/14 05:54:36;;;;;;;29.15;10.32;;;;;;;16.59;85.65;102062.44;5109016;27;20506;-62
2021/08/14 05:57:03;;;;;;;30.48;10.73;;;;;;;16.45;87.52;102062.19;5097267;27;20142;-62
2021/08/14 05:59:30;;;;;;;32.10;10.98;;;;;;;16.40;87.99;102067.94;5099988;27;20134;-62
2021/08/14 06:01:56;;;;;;;26.65;11.02;;;;;;;17.32;83.11;102058.53;5089662;27;20813;-62
2021/08/14 06:04:23;;;;;;;34.50;10.70;;;;;;;17.92;78.66;102048.75;5101990;27;20452;-62
2021/08/14 06:06:49;;;;;;;32.10;10.75;;;;;;;18.12;76.97;102055.38;5096582;27;20057;-62
2021/08/14 06:09:15;;;;;;;33.00;10.95;;;;;;;18.36;75.58;102054.50;5104569;27;20083;-62
2021/08/14 06:11:42;;;;;;;23.48;9.93;;;;;;;17.23;81.12;102062.16;5095398;27;20150;-58
2021/08/14 06:14:09;;;;;;;24.33;10.30;;;;;;;16.92;83.79;102059.19;5095973;27;20093;-61
2021/08/14 06:16:35;;;;;;;31.33;11.85;;;;;;;16.71;86.00;102055.06;5103395;27;20178;-62
2021/08/14 06:19:02;;;;;;;36.05;11.88;;;;;;;16.60;87.21;102060.63;5098280;27;20056;-62
2021/08/14 06:21:29;;;;;;;33.33;11.20;;;;;;;16.57;87.69;102059.13;5080591;28;20216;-62
2021/08/14 06:23:55;;;;;;;27.90;11.10;;;;;;;17.75;81.64;102069.09;5096677;27;20134;-62
2021/08/14 06:26:22;;;;;;;25.63;11.65;;;;;;;18.10;78.50;102057.34;5099205;27;20075;-62
2021/08/14 06:28:48;;;;;;;24.75;10.77;;;;;;;18.45;75.71;102047.38;5100780;27;20151;-62
2021/08/14 06:31:16;;;;;;;32.97;13.13;;;;;;;17.84;78.33;102054.88;5090834;27;20105;-62
2021/08/14 06:33:44;;;;;;;29.95;10.93;;;;;;;18.37;77.04;102053.53;5099702;27;20096;-63
2021/08/14 06:36:12;;;;;;;28.75;12.25;;;;;;;17.49;81.57;102067.38;5086966;27;20167;-62
2021/08/14 06:38:39;;;;;;;29.17;10.88;;;;;;;17.11;83.77;102068.72;5105936;27;20047;-62
2021/08/14 06:41:05;;;;;;;32.22;11.82;;;;;;;17.46;83.75;102075.63;5089796;27;20086;-63
2021/08/14 06:43:32;;;;;;;40.92;12.13;;;;;;;18.17;78.62;102069.00;5100894;27;20093;-63
2021/08/14 06:45:59;;;;;;;29.60;11.10;;;;;;;18.57;76.05;102069.13;5099458;27;20134;-61
2021/08/14 06:48:25;;;;;;;28.85;11.57;;;;;;;18.82;75.43;102071.72;5099312;27;20047;-63
2021/08/14 06:50:52;;;;;;;38.00;12.82;;;;;;;17.91;79.93;102060.34;5097673;27;20485;-62
2021/08/14 06:53:19;;;;;;;34.35;12.73;;;;;;;17.70;80.40;102051.00;5097702;27;20096;-63
2021/08/14 06:55:45;;;;;;;39.08;13.30;;;;;;;18.45;78.30;102051.88;5094613;27;20112;-63
2021/08/14 06:58:12;;;;;;;29.95;12.50;;;;;;;17.66;82.05;102057.63;5096989;27;20075;-63
2021/08/14 07:00:38;;;;;;;29.42;11.93;;;;;;;17.39;83.65;102054.25;5096944;28;20138;-63
2021/08/14 07:03:06;;;;;;;35.45;12.55;;;;;;;18.07;81.28;102047.09;5090737;27;20051;-62
2021/08/14 07:05:33;;;;;;;37.03;12.57;;;;;;;18.77;77.36;102050.94;5094914;27;20056;-63
2021/08/14 07:08:00;;;;;;;36.75;11.98;;;;;;;19.06;74.96;102038.94;5090304;28;20158;-60
2021/08/14 07:10:26;;;;;;;35.42;12.45;;;;;;;19.30;74.86;102043.28;5081835;28;20110;-63
2021/08/14 07:12:53;;;;;;;38.33;11.93;;;;;;;19.31;73.73;102040.47;5102606;28;20078;-63
2021/08/14 07:15:20;;;;;;;37.15;13.10;;;;;;;18.20;79.96;102043.91;5093653;28;20058;-63
2021/08/14 07:17:47;;;;;;;37.88;13.38;;;;;;;17.86;82.33;102046.75;5106124;28;20097;-62
2021/08/14 07:20:13;;;;;;;36.35;12.32;;;;;;;17.90;82.40;102050.72;5097355;28;20511;-63
2021/08/14 07:22:40;;;;;;;40.03;13.68;;;;;;;18.13;82.52;102059.69;5100476;28;20533;-63
2021/08/14 07:25:07;;;;;;;33.92;13.43;;;;;;;17.94;81.56;102060.84;5098052;27;20425;-62
2021/08/14 07:27:33;;;;;;;35.95;12.57;;;;;;;18.96;77.02;102066.53;5097078;28;20842;-62
2021/08/14 07:30:00;;;;;;;44.08;13.57;;;;;;;19.34;75.36;102069.38;5101971;28;20059;-62
2021/08/14 07:32:26;;;;;;;42.70;12.80;;;;;;;18.74;77.65;102069.91;5100097;28;20128;-61
2021/08/14 07:34:53;;;;;;;33.80;11.15;;;;;;;18.78;78.99;102069.41;5102585;28;20134;-63
2021/08/14 07:37:19;;;;;;;37.78;12.95;;;;;;;18.23;81.53;102067.50;5089706;28;20139;-61
2021/08/14 07:39:46;;;;;;;39.72;13.48;;;;;;;18.44;81.57;102069.63;5103769;28;20070;-63
2021/08/14 07:42:13;;;;;;;40.28;13.40;;;;;;;19.59;75.06;102063.91;5104280;28;20055;-63
2021/08/14 07:44:39;;;;;;;40.58;13.75;;;;;;;20.00;73.24;102058.34;5093824;28;20134;-62
2021/08/14 07:47:14;;;;;;;32.65;11.45;;;;;;;20.11;73.13;102060.59;5080907;28;20090;-63
2021/08/14 07:49:40;;;;;;;41.20;14.13;;;;;;;18.98;76.72;102060.25;5091762;28;20263;-63
2021/08/14 07:52:08;;;;;;;46.95;13.55;;;;;;;18.57;80.20;102063.81;5077021;28;20134;-63
2021/08/14 07:54:35;;;;;;;46.70;13.60;;;;;;;18.59;80.12;102056.47;5094579;28;20139;-63
2021/08/14 07:57:01;;;;;;;40.22;14.07;;;;;;;18.44;82.25;102059.00;5108211;28;20362;-62
2021/08/14 07:59:28;;;;;;;41.03;13.18;;;;;;;18.42;82.64;102057.50;5078797;28;20116;-63
2021/08/14 08:01:54;;;;;;;52.45;14.35;;;;;;;19.76;76.39;102056.69;5103693;27;20056;-62
2021/08/14 08:04:21;;;;;;;48.05;13.18;;;;;;;20.25;72.87;102052.81;5102237;27;20138;-63
2021/08/14 08:06:47;;;;;;;48.90;14.10;;;;;;;20.59;71.55;102048.81;5091751;27;20174;-63
2021/08/14 08:09:14;;;;;;;42.97;12.65;;;;;;;20.96;70.35;102047.09;5109638;27;20159;-63
2021/08/14 08:11:40;;;;;;;41.65;13.32;;;;;;;21.13;69.82;102048.53;5095974;27;20586;-63
2021/08/14 08:14:07;;;;;;;49.03;14.35;;;;;;;21.09;68.67;102050.75;5111224;27;20043;-63
2021/08/14 08:16:33;;;;;;;51.17;15.45;;;;;;;21.30;68.13;102046.47;5097697;27;20078;-63
2021/08/14 08:19:01;;;;;;;45.85;14.32;;;;;;;21.35;68.25;102059.28;5105348;27;20051;-62
2021/08/14 08:21:27;;;;;;;44.78;15.05;;;;;;;21.49;67.61;102045.91;5099755;27;20068;-63
2021/08/14 08:23:54;;;;;;;44.75;14.15;;;;;;;20.53;72.61;102056.50;5099803;27;20138;-63
2021/08/14 08:26:20;;;;;;;42.08;13.77;;;;;;;20.26;74.76;102051.78;5104851;27;20044;-62
2021/08/14 08:28:47;;;;;;;49.80;14.38;;;;;;;20.33;75.08;102058.88;5106157;27;20192;-63
2021/08/14 08:31:13;;;;;;;41.75;13.13;;;;;;;20.54;74.51;102057.34;5100910;27;20379;-61
2021/08/14 08:33:40;;;;;;;44.55;12.52;;;;;;;21.58;68.97;102043.09;5097511;27;20134;-62
2021/08/14 08:36:06;;;;;;;54.72;14.38;;;;;;;22.24;65.06;102038.38;5105638;27;20150;-63
2021/08/14 08:38:32;;;;;;;40.63;12.95;;;;;;;22.64;63.83;102035.97;5108231;27;20195;-62
2021/08/14 08:40:59;;;;;;;48.20;14.13;;;;;;;22.80;63.07;102048.19;5095641;27;20138;-61
2021/08/14 08:43:26;;;;;;;45.20;12.88;;;;;;;22.84;62.91;102038.75;5109232;27;20090;-63
2021/08/14 08:45:55;;;;;;;43.22;12.68;;;;;;;22.27;65.10;102045.19;5092891;27;20136;-61
2021/08/14 08:48:23;;;;;;;49.42;13.82;;;;;;;21.73;67.48;102047.38;5105042;27;20750;-62
2021/08/14 08:50:54;;;;;;;41.85;14.45;;;;;;;22.87;63.01;102043.72;5097403;27;20131;-60
2021/08/14 08:53:20;;;;;;;50.47;14.60;;;;;;;21.84;66.52;102038.03;5105533;27;20130;-63
2021/08/14 08:55:47;;;;;;;48.58;15.15;;;;;;;21.61;67.45;102042.72;5102704;27;20133;-63
2021/08/14 08:58:13;;;;;;;43.20;14.43;;;;;;;22.33;66.49;102043.59;5100235;27;20083;-63
2021/08/14 09:00:40;;;;;;;48.65;14.02;;;;;;;22.18;67.88;102035.63;5098286;27;20617;-63
2021/08/14 09:03:12;;;;;;;44.92;14.95;;;;;;;22.34;68.78;102027.34;5096066;27;20043;-63
2021/08/14 09:05:48;;;;;;;44.58;15.95;;;;;;;22.47;67.36;102042.66;5106340;27;20051;-63
2021/08/14 09:08:15;;;;;;;55.25;15.82;;;;;;;22.61;66.42;102036.34;5076985;27;20463;-63
2021/08/14 09:10:42;;;;;;;44.13;14.75;;;;;;;22.54;64.39;102042.69;5100057;27;20447;-63
2021/08/14 09:13:14;;;;;;;51.70;16.42;;;;;;;23.52;61.06;102035.28;5101417;27;20126;-63
2021/08/14 09:15:41;;;;;;;45.08;16.42;;;;;;;24.40;58.41;102036.97;5101668;27;20573;-63
2021/08/14 09:18:10;;;;;;;44.17;14.50;;;;;;;24.92;55.34;102037.06;5102139;27;20048;-62
2021/08/14 09:20:52;;;;;;;48.75;15.20;;;;;;;25.23;54.82;102036.34;5096414;27;20558;-63
2021/08/14 09:23:22;;;;;;;46.70;13.50;;;;;;;24.30;57.21;102048.13;5105959;27;20048;-63
2021/08/14 09:25:50;;;;;;;54.78;16.38;;;;;;;23.69;61.12;102041.91;5095271;27;20226;-63
2021/08/14 09:28:32;;;;;;;59.97;21.92;;;;;;;23.34;61.51;102035.03;5080464;28;20143;-63
2021/08/14 09:31:01;;;;;;;59.30;21.92;;;;;;;23.82;61.56;102043.81;5077887;27;20057;-63
2021/08/14 09:33:37;;;;;;;62.72;24.88;;;;;;;24.35;60.08;102026.06;5100879;27;20216;-63
2021/08/14 09:36:06;;;;;;;70.93;28.75;;;;;;;24.26;60.23;102036.16;5096924;27;20132;-63
2021/08/14 09:38:39;;;;;;;73.82;27.90;;;;;;;23.86;62.79;102042.38;5103932;27;20086;-63
2021/08/14 09:41:08;;;;;;;73.18;28.90;;;;;;;24.39;59.56;102033.47;5099663;27;20150;-63
2021/08/14 09:43:35;;;;;;;71.70;27.20;;;;;;;24.32;57.64;102047.91;5100860;27;20055;-63
2021/08/14 09:46:03;;;;;;;65.73;26.13;;;;;;;23.25;62.38;102047.81;5105933;27;21440;-62
2021/08/14 09:48:31;;;;;;;;;;;;;;;23.86;60.01;102042.38;5097134;27;20322;-63
2021/08/14 09:50:58;;;;;;;66.40;27.25;;;;;;;25.07;57.84;102043.00;5102365;27;20302;-63
2021/08/14 09:53:27;;;;;;;74.35;27.00;;;;;;;24.38;59.43;102042.53;5091551;27;20056;-62
2021/08/14 09:56:10;;;;;;;73.00;27.67;;;;;;;23.98;59.95;102039.91;5103120;27;20048;-62
2021/08/14 09:58:38;;;;;;;77.25;26.02;;;;;;;23.81;60.18;102042.16;5092308;27;20150;-62
2021/08/14 10:01:07;;;;;;;65.47;26.42;;;;;;;24.32;60.66;102046.06;5100656;27;20115;-62
2021/08/14 10:03:35;;;;;;;76.00;27.42;;;;;;;24.95;57.96;102044.69;5082810;28;20399;-63
2021/08/14 10:06:02;;;;;;;66.03;27.10;;;;;;;24.27;57.70;102056.59;5100345;27;20052;-63
2021/08/14 10:08:30;;;;;;;72.50;27.55;;;;;;;25.14;55.11;102046.47;5092425;27;20143;-63
2021/08/14 10:10:57;;;;;;;73.35;26.70;;;;;;;25.47;53.81;102042.81;5095811;27;20139;-62
2021/08/14 10:13:24;;;;;;;70.30;28.05;;;;;;;24.37;56.56;102048.94;5101455;27;20047;-62
2021/08/14 10:15:51;;;;;;;67.38;25.70;;;;;;;24.00;58.36;102047.75;5102931;27;20568;-63
2021/08/14 10:18:19;;;;;;;66.57;26.15;;;;;;;23.51;58.97;102060.44;5099349;27;20502;-63
2021/08/14 10:20:46;;;;;;;63.58;25.55;;;;;;;24.16;57.78;102043.81;5100998;27;20082;-63
2021/08/14 10:23:19;;;;;;;56.38;20.10;;;;;;;25.13;55.21;102042.16;5086878;28;20154;-63
2021/08/14 10:26:05;;;;;;;63.28;23.23;;;;;;;24.44;56.16;102043.56;5101365;27;20119;-62
2021/08/14 10:28:52;;;;;;;54.15;21.42;;;;;;;23.74;57.05;102045.81;5094909;27;20052;-63
2021/08/14 10:31:43;;;;;;;47.78;21.20;;;;;;;23.73;58.52;102050.38;5100017;27;20052;-63
2021/08/14 10:34:12;;;;;;;50.58;19.67;;;;;;;24.85;55.83;102045.13;5086199;27;20048;-63
2021/08/14 10:36:40;;;;;;;37.92;17.25;;;;;;;25.37;52.76;102045.97;5098208;27;20526;-63
2021/08/14 10:39:16;;;;;;;;;;;;;;;25.05;54.88;102050.41;5095904;27;20519;-63
2021/08/14 10:41:43;;;;;;;49.47;19.67;;;;;;;24.22;57.06;102051.03;5096267;27;20680;-62
2021/08/14 10:44:10;;;;;;;52.45;20.85;;;;;;;24.30;57.36;102050.81;5100385;27;20465;-62
2021/08/14 10:46:48;;;;;;;45.38;18.70;;;;;;;24.16;58.42;102044.63;5101012;27;20581;-63
2021/08/14 10:49:19;;;;;;;;;;;;;;;23.74;59.96;102051.19;5099015;27;20050;-63
2021/08/14 10:51:46;;;;;;;52.83;20.73;;;;;;;25.11;55.74;102057.66;5095299;27;19934;-63
2021/08/14 10:54:14;;;;;;;46.22;19.05;;;;;;;25.82;54.69;102053.13;5104001;27;20052;-63
2021/08/14 10:57:01;;;;;;;47.30;19.33;;;;;;;25.16;55.62;102048.94;5093971;27;20134;-63
2021/08/14 10:59:39;;;;;;;50.85;19.98;;;;;;;24.52;58.48;102039.88;5098696;27;20052;-63
2021/08/14 11:02:06;;;;;;;56.33;20.73;;;;;;;24.22;59.21;102051.84;5092123;28;20138;-63
2021/08/14 11:04:38;;;;;;;46.05;19.38;;;;;;;24.11;57.94;102052.50;5097684;27;20047;-63
2021/08/14 11:07:19;;;;;;;54.97;21.45;;;;;;;23.70;60.06;102050.78;5097693;27;20096;-63
2021/08/14 11:09:52;;;;;;;50.35;20.73;;;;;;;23.95;59.80;102048.34;5105842;27;20199;-64
2021/08/14 11:12:41;;;;;;;52.20;22.33;;;;;;;24.17;58.84;102045.44;5099862;28;20050;-63
2021/08/14 11:15:17;;;;;;;44.75;21.02;;;;;;;24.69;57.96;102054.47;5098640;28;20513;-63
2021/08/14 11:17:45;;;;;;;47.42;20.95;;;;;;;24.35;57.88;102052.88;5094340;28;20047;-62